Time;durP1;ratioP1;P1;durP2;ratioP2;P2;SDS_P1;SDS_P2;PMS_P1;PMS_P2;Temp;Humidity;BMP_temperature;BMP_pressure;BME280_temperature;BME280_humidity;BME280_pressure;Samples;Min_cycle;Max_cycle;Signal;HPM_P1;HPM_P2
2022/10/09 00:00:00;;;;;;;30.52;28.25;;;13.00;83.70;;;;;;4967689;28;20392;-74
2022/10/09 00:02:26;;;;;;;30.58;28.27;;;12.90;84.50;;;;;;4951304;29;20082;-74
2022/10/09 00:04:52;;;;;;;29.13;26.85;;;12.90;83.90;;;;;;4952726;28;20031;-74
2022/10/09 00:07:18;;;;;;;29.55;27.27;;;12.80;84.10;;;;;;4964380;28;20058;-74
2022/10/09 00:09:45;;;;;;;30.10;27.33;;;13.00;83.50;;;;;;4934772;29;20036;-74
2022/10/09 00:12:11;;;;;;;30.58;27.80;;;13.00;84.30;;;;;;4936606;29;20048;-73
2022/10/09 00:14:37;;;;;;;30.55;27.48;;;13.00;84.10;;;;;;4933854;29;20051;-74
2022/10/09 00:17:03;;;;;;;30.00;27.60;;;13.00;83.40;;;;;;4937141;28;20465;-74
2022/10/09 00:19:29;;;;;;;30.08;27.65;;;13.00;83.00;;;;;;4943098;29;20047;-73
2022/10/09 00:21:55;;;;;;;29.30;26.83;;;13.00;83.20;;;;;;4951464;28;20484;-75
2022/10/09 00:24:21;;;;;;;29.23;26.90;;;13.00;82.70;;;;;;4967798;28;20043;-74
2022/10/09 00:26:48;;;;;;;29.70;27.58;;;13.00;83.30;;;;;;4963490;28;20389;-74
2022/10/09 00:29:14;;;;;;;29.15;26.73;;;13.10;82.60;;;;;;4948412;29;20043;-74
2022/10/09 00:31:40;;;;;;;28.10;25.73;;;13.10;82.90;;;;;;4941623;28;20063;-74
2022/10/09 00:34:06;;;;;;;28.30;26.25;;;13.00;82.90;;;;;;4959208;28;20077;-75
2022/10/09 00:36:32;;;;;;;27.60;25.45;;;13.00;83.20;;;;;;4946332;29;20062;-74
2022/10/09 00:38:58;;;;;;;27.63;25.17;;;13.00;83.50;;;;;;4959180;28;20031;-74
2022/10/09 00:41:26;;;;;;;28.25;25.90;;;13.00;83.40;;;;;;4952548;28;20058;-75
2022/10/09 00:43:53;;;;;;;28.30;25.98;;;13.00;82.80;;;;;;4951999;28;20036;-75
2022/10/09 00:46:25;;;;;;;27.38;25.15;;;12.90;82.90;;;;;;4950824;28;20507;-74
2022/10/09 00:49:13;;;;;;;27.42;24.95;;;12.90;83.70;;;;;;4952663;29;20038;-74
2022/10/09 00:51:39;;;;;;;27.30;25.13;;;12.80;83.10;;;;;;4934411;28;20028;-74
2022/10/09 00:54:07;;;;;;;25.70;23.60;;;12.80;83.00;;;;;;4924142;29;20062;-74
2022/10/09 00:56:33;;;;;;;28.63;26.05;;;12.80;83.30;;;;;;4956642;28;20036;-74
2022/10/09 00:58:59;;;;;;;28.33;26.23;;;12.70;83.40;;;;;;4962458;28;20032;-74
2022/10/09 01:01:25;;;;;;;26.40;24.25;;;12.70;83.40;;;;;;4966336;28;20507;-75
2022/10/09 01:03:51;;;;;;;26.65;24.35;;;12.70;84.20;;;;;;4939170;29;20047;-73
2022/10/09 01:06:29;;;;;;;27.00;24.88;;;12.60;84.00;;;;;;4938454;29;20039;-74
2022/10/09 01:09:06;;;;;;;26.55;24.55;;;12.60;84.20;;;;;;4971062;28;20031;-74
2022/10/09 01:11:56;;;;;;;25.92;23.75;;;12.60;83.50;;;;;;4943769;29;20046;-74
2022/10/09 01:14:43;;;;;;;24.70;22.30;;;12.60;83.60;;;;;;4943108;29;20043;-75
2022/10/09 01:17:20;;;;;;;21.38;19.67;;;12.50;83.70;;;;;;4938365;28;20039;-74
2022/10/09 01:20:03;;;;;;;20.98;19.20;;;12.60;83.70;;;;;;4955473;28;20031;-74
2022/10/09 01:22:29;;;;;;;20.75;18.55;;;12.50;83.50;;;;;;4954336;29;20039;-74
2022/10/09 01:25:06;;;;;;;21.10;18.92;;;12.50;84.70;;;;;;4955879;28;20384;-74
2022/10/09 01:27:32;;;;;;;22.50;20.60;;;12.50;85.10;;;;;;4970944;28;20031;-74
2022/10/09 01:30:07;;;;;;;22.40;20.55;;;12.50;84.60;;;;;;4953994;28;20035;-74
2022/10/09 01:32:36;;;;;;;21.13;19.65;;;12.40;84.60;;;;;;4952780;28;20055;-74
2022/10/09 01:35:04;;;;;;;22.42;20.65;;;12.40;85.20;;;;;;4966618;28;20465;-75
2022/10/09 01:37:30;;;;;;;21.75;19.98;;;12.40;84.50;;;;;;4954086;28;20039;-74
2022/10/09 01:39:57;;;;;;;21.50;19.73;;;12.40;83.90;;;;;;4978461;28;20031;-74
2022/10/09 01:42:23;;;;;;;21.40;19.42;;;12.40;84.00;;;;;;4958277;28;20050;-74
2022/10/09 01:44:49;;;;;;;21.23;19.60;;;12.40;83.80;;;;;;4950295;28;20051;-75
2022/10/09 01:47:16;;;;;;;20.13;18.13;;;12.40;83.90;;;;;;4948528;28;20035;-74
2022/10/09 01:49:55;;;;;;;21.02;19.13;;;12.30;85.40;;;;;;4957478;28;20040;-74
2022/10/09 01:52:42;;;;;;;21.95;20.02;;;12.40;84.70;;;;;;4945784;28;20035;-74
2022/10/09 01:55:17;;;;;;;22.45;20.30;;;12.20;85.50;;;;;;4945547;29;20034;-74
2022/10/09 01:57:49;;;;;;;21.05;19.23;;;12.20;84.80;;;;;;4943776;29;20047;-74
2022/10/09 02:00:15;;;;;;;22.42;20.23;;;12.20;85.30;;;;;;4948057;28;20047;-74
2022/10/09 02:02:42;;;;;;;21.48;19.90;;;12.10;84.50;;;;;;4947268;28;20027;-74
2022/10/09 02:05:14;;;;;;;21.90;19.80;;;12.10;84.50;;;;;;4946111;28;20035;-77
2022/10/09 02:07:40;;;;;;;21.95;20.13;;;12.10;84.40;;;;;;4940672;28;20035;-76
2022/10/09 02:10:07;;;;;;;20.80;18.80;;;12.10;84.40;;;;;;4947413;29;20408;-77
2022/10/09 02:12:36;;;;;;;20.63;19.17;;;12.10;84.50;;;;;;4950268;28;20027;-77
2022/10/09 02:15:02;;;;;;;20.45;18.85;;;12.00;84.30;;;;;;4939785;29;20035;-74
2022/10/09 02:17:29;;;;;;;21.00;19.02;;;12.00;84.60;;;;;;4959804;28;20046;-77
2022/10/09 02:20:02;;;;;;;21.08;19.15;;;12.00;84.80;;;;;;4935032;28;20050;-77
2022/10/09 02:22:29;;;;;;;21.40;19.75;;;12.00;85.00;;;;;;4944293;28;20035;-77
2022/10/09 02:24:59;;;;;;;20.80;18.90;;;12.00;84.30;;;;;;4965793;28;20027;-74
2022/10/09 02:27:25;;;;;;;21.05;19.45;;;12.00;84.80;;;;;;4933620;29;20044;-77
2022/10/09 02:29:51;;;;;;;22.35;20.58;;;12.00;84.60;;;;;;4966131;28;20035;-77
2022/10/09 02:32:18;;;;;;;21.55;19.45;;;11.90;84.60;;;;;;4944217;28;20047;-77
2022/10/09 02:34:44;;;;;;;20.88;19.15;;;11.90;84.70;;;;;;4943605;28;20413;-77
2022/10/09 02:37:10;;;;;;;23.02;21.13;;;11.80;85.60;;;;;;4946356;28;20039;-76
2022/10/09 02:39:36;;;;;;;20.45;19.05;;;11.70;85.50;;;;;;4952616;28;20038;-76
2022/10/09 02:42:02;;;;;;;22.48;20.17;;;11.60;86.20;;;;;;4949018;28;20397;-76
2022/10/09 02:44:28;;;;;;;22.33;20.60;;;11.60;86.50;;;;;;4964255;28;20046;-76
2022/10/09 02:46:54;;;;;;;21.30;19.55;;;11.60;85.70;;;;;;4919555;28;20032;-77
2022/10/09 02:49:20;;;;;;;21.90;20.30;;;11.60;85.60;;;;;;4942844;29;20039;-76
2022/10/09 02:51:47;;;;;;;20.83;19.20;;;11.60;85.20;;;;;;4947424;28;20360;-77
2022/10/09 02:54:13;;;;;;;20.52;18.92;;;11.60;85.40;;;;;;4952538;29;20121;-76
2022/10/09 02:56:39;;;;;;;20.60;18.98;;;11.60;85.40;;;;;;4944607;28;20035;-77
2022/10/09 02:59:05;;;;;;;20.40;18.65;;;11.60;85.50;;;;;;4946449;28;20473;-77
2022/10/09 03:01:31;;;;;;;22.45;20.55;;;11.60;85.40;;;;;;4946382;28;20038;-76
2022/10/09 03:03:58;;;;;;;22.70;20.98;;;11.60;86.40;;;;;;4925696;29;20054;-77
2022/10/09 03:06:25;;;;;;;22.35;20.65;;;11.40;86.60;;;;;;4950845;28;20035;-76
2022/10/09 03:08:51;;;;;;;22.90;20.42;;;11.40;86.70;;;;;;4963206;28;20039;-77
2022/10/09 03:11:18;;;;;;;22.85;19.88;;;11.40;85.80;;;;;;4953777;28;20031;-77
2022/10/09 03:13:44;;;;;;;20.98;19.35;;;11.50;85.70;;;;;;4949883;28;20035;-76
2022/10/09 03:16:15;;;;;;;20.90;19.40;;;11.50;85.60;;;;;;4957593;28;20054;-76
2022/10/09 03:18:41;;;;;;;20.83;19.48;;;11.40;85.60;;;;;;4946960;28;20040;-76
2022/10/09 03:21:10;;;;;;;20.70;19.17;;;11.40;85.50;;;;;;4945780;28;20428;-76
2022/10/09 03:23:36;;;;;;;21.45;18.45;;;11.40;85.30;;;;;;4943132;28;20515;-76
2022/10/09 03:26:07;;;;;;;21.38;19.65;;;11.30;86.00;;;;;;4940406;29;20027;-76
2022/10/09 03:28:41;;;;;;;21.73;19.80;;;11.40;85.60;;;;;;4941320;28;20378;-76
2022/10/09 03:31:07;;;;;;;18.08;16.55;;;11.40;85.60;;;;;;4950924;28;20043;-76
2022/10/09 03:33:33;;;;;;;19.95;18.45;;;11.30;87.10;;;;;;4950397;28;20043;-76
2022/10/09 03:36:00;;;;;;;21.63;19.83;;;11.30;86.60;;;;;;4945386;28;20038;-76
2022/10/09 03:38:26;;;;;;;19.30;17.55;;;11.30;85.80;;;;;;4934221;29;20043;-77
2022/10/09 03:40:52;;;;;;;21.63;19.52;;;11.40;86.00;;;;;;4951441;28;20396;-77
2022/10/09 03:43:18;;;;;;;19.88;18.27;;;11.30;87.10;;;;;;4960455;28;20413;-77
2022/10/09 03:45:44;;;;;;;21.42;19.48;;;11.00;88.00;;;;;;4940358;28;20051;-76
2022/10/09 03:48:11;;;;;;;21.73;19.90;;;10.90;89.20;;;;;;4947700;28;20048;-76
2022/10/09 03:50:37;;;;;;;21.35;19.25;;;10.80;89.50;;;;;;4963934;28;20230;-76
2022/10/09 03:53:04;;;;;;;21.10;19.50;;;10.90;90.00;;;;;;4955053;28;20035;-78
2022/10/09 03:55:31;;;;;;;21.42;19.55;;;10.90;88.80;;;;;;4962413;28;20508;-77
2022/10/09 03:57:57;;;;;;;21.60;19.98;;;11.00;88.40;;;;;;4964961;28;20396;-76
2022/10/09 04:00:23;;;;;;;20.98;19.48;;;10.90;89.10;;;;;;4960131;28;20047;-77
2022/10/09 04:02:49;;;;;;;20.52;18.90;;;10.80;89.10;;;;;;4947914;28;20391;-77
2022/10/09 04:05:15;;;;;;;22.25;20.63;;;10.90;89.20;;;;;;4944469;28;20039;-77
2022/10/09 04:07:41;;;;;;;21.10;19.10;;;10.70;89.20;;;;;;4948868;29;20043;-76
2022/10/09 04:10:08;;;;;;;20.35;18.63;;;10.70;88.40;;;;;;4950113;28;20043;-76
2022/10/09 04:12:34;;;;;;;20.70;18.95;;;10.80;88.00;;;;;;4965710;28;20028;-76
2022/10/09 04:15:00;;;;;;;22.50;20.38;;;10.80;87.70;;;;;;4947067;28;20042;-76
2022/10/09 04:17:26;;;;;;;21.58;19.88;;;10.90;87.40;;;;;;4939524;28;20422;-76
2022/10/09 04:19:52;;;;;;;20.33;18.73;;;10.90;86.80;;;;;;4943934;28;20034;-77
2022/10/09 04:22:18;;;;;;;20.20;18.75;;;10.90;86.60;;;;;;4948531;28;20039;-77
2022/10/09 04:24:44;;;;;;;18.67;17.13;;;10.90;87.00;;;;;;4957293;28;20047;-76
2022/10/09 04:27:10;;;;;;;20.20;18.95;;;10.90;87.60;;;;;;4942405;29;20039;-76
2022/10/09 04:29:38;;;;;;;21.58;19.95;;;11.00;87.10;;;;;;4943422;29;20035;-76
2022/10/09 04:32:04;;;;;;;21.80;20.13;;;11.00;87.10;;;;;;4946550;28;20401;-76
2022/10/09 04:34:30;;;;;;;20.30;18.70;;;10.90;86.60;;;;;;4944687;28;20499;-76
2022/10/09 04:36:56;;;;;;;22.30;20.30;;;10.90;87.40;;;;;;4946888;28;20039;-77
2022/10/09 04:39:22;;;;;;;20.38;18.50;;;10.90;87.50;;;;;;4939595;28;20401;-76
2022/10/09 04:41:49;;;;;;;21.27;19.70;;;10.80;88.30;;;;;;4937012;29;20031;-76
2022/10/09 04:44:15;;;;;;;22.17;20.38;;;10.80;87.30;;;;;;4943698;29;20055;-76
2022/10/09 04:46:41;;;;;;;21.45;19.35;;;10.80;87.20;;;;;;4954893;28;20039;-76
2022/10/09 04:49:11;;;;;;;19.60;18.10;;;10.80;86.90;;;;;;4954048;28;20035;-76
2022/10/09 04:51:37;;;;;;;21.23;19.70;;;10.70;87.00;;;;;;4968199;28;20032;-76
2022/10/09 04:54:03;;;;;;;19.13;17.52;;;10.70;86.90;;;;;;4947785;29;20523;-76
2022/10/09 04:56:30;;;;;;;18.27;16.80;;;10.70;87.30;;;;;;4948149;28;20032;-77
2022/10/09 04:58:56;;;;;;;20.13;18.50;;;10.70;88.00;;;;;;4955079;28;20043;-77
2022/10/09 05:01:23;;;;;;;20.95;19.40;;;10.70;87.30;;;;;;4954735;28;20039;-76
2022/10/09 05:03:49;;;;;;;21.08;19.27;;;10.70;87.40;;;;;;4944478;28;20062;-77
2022/10/09 05:06:16;;;;;;;20.65;18.92;;;10.70;87.10;;;;;;4956377;28;20471;-76
2022/10/09 05:08:42;;;;;;;21.23;18.30;;;10.60;87.00;;;;;;4947136;29;20370;-77
2022/10/09 05:11:20;;;;;;;19.42;17.67;;;10.60;87.10;;;;;;4948927;28;20036;-77
2022/10/09 05:13:48;;;;;;;19.50;17.90;;;10.60;87.10;;;;;;4947908;28;20039;-76
2022/10/09 05:16:19;;;;;;;14.90;13.70;;;10.60;87.10;;;;;;4957160;28;20155;-77
2022/10/09 05:18:47;;;;;;;17.10;15.35;;;10.60;87.80;;;;;;4952529;28;20027;-77
2022/10/09 05:21:13;;;;;;;19.67;18.05;;;10.60;87.70;;;;;;4937464;29;20035;-76
2022/10/09 05:23:40;;;;;;;19.25;17.50;;;10.60;87.00;;;;;;4943990;28;20397;-76
2022/10/09 05:26:07;;;;;;;20.15;18.60;;;10.50;87.10;;;;;;4955789;28;20171;-76
2022/10/09 05:28:34;;;;;;;17.90;16.48;;;10.50;87.20;;;;;;4959791;28;20047;-76
2022/10/09 05:31:02;;;;;;;15.18;14.05;;;10.50;87.20;;;;;;4939349;28;20036;-77
2022/10/09 05:33:28;;;;;;;15.95;14.45;;;10.50;88.80;;;;;;4954400;28;20503;-76
2022/10/09 05:36:02;;;;;;;16.98;15.57;;;10.60;88.20;;;;;;4959970;28;20501;-77
2022/10/09 05:38:28;;;;;;;18.58;16.88;;;10.60;88.20;;;;;;4963477;28;20032;-77
2022/10/09 05:40:56;;;;;;;19.92;18.23;;;10.50;87.40;;;;;;4972975;28;20047;-77
2022/10/09 05:43:23;;;;;;;18.55;17.35;;;10.50;87.30;;;;;;4948752;28;20040;-76
2022/10/09 05:45:49;;;;;;;18.73;17.00;;;10.50;87.40;;;;;;4950761;28;20039;-77
2022/10/09 05:48:16;;;;;;;19.20;17.90;;;10.40;87.50;;;;;;4961010;28;20401;-77
2022/10/09 05:50:42;;;;;;;18.15;16.65;;;10.50;87.20;;;;;;4947987;29;20055;-77
2022/10/09 05:53:08;;;;;;;16.67;15.27;;;10.50;87.20;;;;;;4953965;28;20078;-77
2022/10/09 05:55:34;;;;;;;17.00;15.80;;;10.40;89.60;;;;;;4940207;29;20047;-77
2022/10/09 05:58:00;;;;;;;20.15;18.75;;;10.40;88.70;;;;;;4962510;28;20028;-76
2022/10/09 06:00:26;;;;;;;30.40;27.27;;;10.40;88.30;;;;;;4955518;28;20027;-76
2022/10/09 06:02:52;;;;;;;21.77;18.48;;;10.20;89.70;;;;;;4970627;28;20027;-77
2022/10/09 06:05:18;;;;;;;21.88;19.67;;;10.20;90.40;;;;;;4970611;28;20039;-76
2022/10/09 06:07:45;;;;;;;22.35;20.02;;;10.20;90.20;;;;;;4970883;28;20042;-78
2022/10/09 06:10:11;;;;;;;18.50;16.98;;;10.20;90.00;;;;;;4962884;28;20057;-77
2022/10/09 06:12:37;;;;;;;17.88;16.17;;;10.00;90.50;;;;;;4946458;28;20032;-77
2022/10/09 06:15:04;;;;;;;16.20;14.52;;;10.00;90.30;;;;;;4950903;28;20378;-78
2022/10/09 06:17:31;;;;;;;16.75;15.48;;;10.10;90.00;;;;;;4963380;28;20051;-77
2022/10/09 06:19:57;;;;;;;15.65;14.40;;;10.20;89.40;;;;;;4943335;29;20481;-77
2022/10/09 06:22:23;;;;;;;16.02;14.43;;;10.20;89.70;;;;;;4948174;29;20027;-79
2022/10/09 06:24:49;;;;;;;16.77;15.07;;;10.10;89.70;;;;;;4945254;29;20051;-80
2022/10/09 06:27:16;;;;;;;16.05;14.65;;;10.10;90.00;;;;;;4951996;29;20457;-80
2022/10/09 06:29:42;;;;;;;17.38;15.68;;;10.20;90.00;;;;;;4958521;28;20036;-80
2022/10/09 06:32:08;;;;;;;17.33;15.80;;;10.20;89.60;;;;;;4959527;28;20074;-80
2022/10/09 06:34:34;;;;;;;15.82;14.30;;;10.20;89.20;;;;;;4957575;28;20275;-79
2022/10/09 06:37:00;;;;;;;15.85;14.52;;;10.30;89.20;;;;;;4943616;29;20046;-79
2022/10/09 06:39:26;;;;;;;15.20;13.93;;;10.30;89.80;;;;;;4943861;28;20038;-78
2022/10/09 06:41:52;;;;;;;15.85;14.45;;;10.10;89.90;;;;;;4944804;28;20047;-77
2022/10/09 06:44:19;;;;;;;16.33;14.77;;;10.10;90.10;;;;;;4936231;29;20046;-78
2022/10/09 06:46:47;;;;;;;18.55;13.93;;;10.20;90.00;;;;;;4942715;28;20047;-78
2022/10/09 06:49:13;;;;;;;17.13;15.30;;;10.30;89.90;;;;;;4927656;29;20043;-78
2022/10/09 06:51:39;;;;;;;16.17;14.70;;;10.30;89.70;;;;;;4937753;28;20397;-78
2022/10/09 06:54:09;;;;;;;17.25;15.85;;;10.30;89.70;;;;;;4949153;29;20469;-76
2022/10/09 06:56:35;;;;;;;18.05;16.27;;;10.30;89.90;;;;;;4969229;28;20461;-78
2022/10/09 06:59:02;;;;;;;17.02;15.65;;;10.20;90.70;;;;;;4937926;28;20031;-74
2022/10/09 07:01:30;;;;;;;16.70;14.98;;;10.20;90.90;;;;;;4963001;28;20409;-77
2022/10/09 07:03:58;;;;;;;16.52;15.15;;;10.20;91.00;;;;;;4940395;29;20032;-77
2022/10/09 07:06:25;;;;;;;16.27;15.10;;;10.10;91.40;;;;;;4945268;29;20503;-76
2022/10/09 07:09:03;;;;;;;16.35;15.10;;;10.30;91.30;;;;;;4950111;28;20504;-76
2022/10/09 07:11:37;;;;;;;16.58;15.40;;;10.20;91.50;;;;;;4969268;28;20069;-77
2022/10/09 07:14:05;;;;;;;17.50;15.85;;;10.20;91.40;;;;;;4968845;28;20031;-78
2022/10/09 07:16:33;;;;;;;16.35;15.07;;;10.30;91.40;;;;;;4968275;28;20504;-77
2022/10/09 07:19:00;;;;;;;17.75;16.27;;;10.30;91.60;;;;;;4969609;28;20027;-78
2022/10/09 07:21:26;;;;;;;18.15;16.38;;;10.20;91.80;;;;;;4965747;28;20043;-77
2022/10/09 07:23:55;;;;;;;18.85;17.40;;;10.20;92.00;;;;;;4945253;29;20420;-78
2022/10/09 07:26:25;;;;;;;16.60;15.30;;;10.50;91.80;;;;;;4950933;29;20032;-75
2022/10/09 07:28:51;;;;;;;22.58;20.95;;;10.50;91.50;;;;;;4953745;28;20035;-76
2022/10/09 07:31:17;;;;;;;22.60;21.00;;;10.40;91.80;;;;;;4968107;28;20039;-75
2022/10/09 07:33:50;;;;;;;20.40;18.55;;;10.70;91.30;;;;;;4969123;28;20043;-75
2022/10/09 07:36:16;;;;;;;20.33;18.60;;;10.80;91.00;;;;;;4965327;28;20035;-75
2022/10/09 07:38:43;;;;;;;23.90;22.35;;;10.80;91.10;;;;;;4962437;28;20507;-76
2022/10/09 07:41:10;;;;;;;21.52;20.13;;;10.90;91.00;;;;;;4940261;28;20039;-75
2022/10/09 07:43:37;;;;;;;20.67;19.15;;;10.90;90.80;;;;;;4959129;28;20030;-76
2022/10/09 07:46:04;;;;;;;20.55;18.95;;;10.90;90.80;;;;;;4964164;28;20535;-75
2022/10/09 07:48:30;;;;;;;18.63;17.27;;;11.10;90.50;;;;;;4964732;28;20046;-76
2022/10/09 07:50:56;;;;;;;20.67;19.13;;;11.20;90.10;;;;;;4958589;28;20385;-75
2022/10/09 07:53:23;;;;;;;21.23;19.92;;;11.30;90.00;;;;;;4960081;28;20032;-77
2022/10/09 07:55:49;;;;;;;21.25;19.50;;;11.30;90.10;;;;;;4958923;28;20023;-78
2022/10/09 07:58:15;;;;;;;22.48;20.70;;;11.50;90.00;;;;;;4945605;28;20119;-77
2022/10/09 08:00:42;;;;;;;19.40;18.00;;;11.80;89.40;;;;;;4936724;28;20059;-78
2022/10/09 08:03:08;;;;;;;21.35;19.92;;;11.90;88.10;;;;;;4944154;29;20031;-78
2022/10/09 08:05:34;;;;;;;21.38;19.73;;;11.90;88.50;;;;;;4957261;28;20042;-78
2022/10/09 08:08:00;;;;;;;20.85;19.08;;;12.00;88.70;;;;;;4959162;28;20027;-78
2022/10/09 08:10:30;;;;;;;20.17;18.50;;;12.20;88.10;;;;;;4953933;28;20126;-78
2022/10/09 08:12:56;;;;;;;20.58;18.85;;;12.40;87.70;;;;;;4942165;29;20396;-75
2022/10/09 08:15:22;;;;;;;19.73;18.17;;;12.30;87.60;;;;;;4956265;28;20046;-74
2022/10/09 08:17:51;;;;;;;22.02;20.60;;;12.50;87.40;;;;;;4957527;28;20032;-83
2022/10/09 08:20:17;;;;;;;20.00;18.55;;;12.60;90.60;;;;;;4955978;28;20462;-83
2022/10/09 08:22:43;;;;;;;24.00;22.08;;;12.80;88.70;;;;;;4957480;28;20034;-84
2022/10/09 08:25:09;;;;;;;23.30;21.48;;;12.80;89.60;;;;;;4936590;29;20492;-82
2022/10/09 08:27:35;;;;;;;19.02;17.67;;;12.90;89.10;;;;;;4940117;29;20037;-84
2022/10/09 08:30:02;;;;;;;19.08;17.95;;;12.90;88.00;;;;;;4934074;29;20381;-80
2022/10/09 08:32:28;;;;;;;19.02;18.02;;;13.10;87.20;;;;;;4947221;28;20535;-81
2022/10/09 08:34:54;;;;;;;20.92;19.35;;;13.20;86.20;;;;;;4963341;28;20038;-81
2022/10/09 08:37:20;;;;;;;20.55;19.02;;;13.10;86.40;;;;;;4948549;29;20488;-81
2022/10/09 08:39:46;;;;;;;20.40;18.73;;;13.20;86.70;;;;;;4927201;28;20040;-82
2022/10/09 08:42:31;;;;;;;19.00;17.83;;;13.30;86.80;;;;;;4962016;28;20031;-82
2022/10/09 08:44:57;;;;;;;19.10;17.63;;;13.40;86.40;;;;;;4935144;29;20035;-82
2022/10/09 08:47:55;;;;;;;18.88;17.40;;;13.50;86.50;;;;;;4954609;28;20031;-82
2022/10/09 08:50:26;;;;;;;18.75;17.38;;;13.70;86.00;;;;;;4940030;28;20039;-82
2022/10/09 08:53:04;;;;;;;18.02;16.65;;;13.90;84.80;;;;;;4955555;29;20031;-82
2022/10/09 08:55:34;;;;;;;18.63;17.25;;;14.00;84.70;;;;;;4953233;28;20040;-83
2022/10/09 08:58:03;;;;;;;17.70;16.40;;;14.10;84.60;;;;;;4938899;29;20031;-81
2022/10/09 09:01:09;;;;;;;18.00;16.50;;;14.10;83.80;;;;;;4961571;28;20031;-82
2022/10/09 09:03:50;;;;;;;17.73;16.45;;;14.20;84.50;;;;;;4926397;29;20058;-82
2022/10/09 09:06:28;;;;;;;18.20;16.95;;;14.30;83.80;;;;;;4932751;29;20143;-81
2022/10/09 09:09:00;;;;;;;18.10;16.95;;;14.30;83.90;;;;;;4934806;29;20051;-82
2022/10/09 09:11:41;;;;;;;19.77;18.58;;;14.30;83.30;;;;;;4919337;29;20140;-82
2022/10/09 09:14:19;;;;;;;19.25;18.05;;;14.40;83.80;;;;;;4932859;29;20052;-83
2022/10/09 09:16:50;;;;;;;24.23;22.48;;;14.50;83.20;;;;;;4935735;29;20246;-88
2022/10/09 09:19:34;;;;;;;23.15;21.15;;;14.60;83.00;;;;;;4921269;29;20162;-86
2022/10/09 09:22:00;;;;;;;24.25;22.65;;;14.60;82.20;;;;;;4936509;29;20147;-85
2022/10/09 09:24:37;;;;;;;23.58;21.98;;;14.70;83.20;;;;;;4936979;29;20031;-85
2022/10/09 09:27:12;;;;;;;28.10;26.40;;;14.80;82.00;;;;;;4919594;29;20047;-87
2022/10/09 09:29:53;;;;;;;23.67;22.08;;;14.90;82.50;;;;;;4921902;29;20036;-86
2022/10/09 09:32:21;;;;;;;23.35;21.60;;;15.00;81.30;;;;;;4921432;29;20055;-86
2022/10/09 09:34:48;;;;;;;26.13;24.27;;;14.90;81.90;;;;;;4921242;29;20062;-86
2022/10/09 09:37:14;;;;;;;22.38;20.60;;;15.00;82.40;;;;;;4920309;29;20035;-86
2022/10/09 09:39:40;;;;;;;22.98;21.27;;;15.20;82.10;;;;;;4924878;29;20039;-85
2022/10/09 09:42:06;;;;;;;22.08;20.58;;;15.30;81.40;;;;;;4976320;28;20032;-85
2022/10/09 09:44:32;;;;;;;22.75;21.17;;;15.30;81.20;;;;;;4958794;28;20051;-86
2022/10/09 09:46:58;;;;;;;22.50;20.77;;;15.30;80.90;;;;;;4954449;28;20042;-84
2022/10/09 09:49:27;;;;;;;22.70;21.13;;;15.30;81.10;;;;;;4939853;29;20038;-84
2022/10/09 09:51:55;;;;;;;23.70;22.45;;;15.40;80.80;;;;;;4932432;28;20028;-85
2022/10/09 09:54:22;;;;;;;21.23;19.48;;;15.50;80.30;;;;;;4930343;29;20038;-85
2022/10/09 09:56:49;;;;;;;21.00;19.55;;;15.50;80.80;;;;;;4932240;28;20520;-84
2022/10/09 09:59:35;;;;;;;25.17;23.13;;;15.50;81.70;;;;;;4929794;29;20043;-82
2022/10/09 10:02:05;;;;;;;23.80;21.95;;;15.60;81.80;;;;;;4948364;28;20048;-82
2022/10/09 10:04:31;;;;;;;22.90;20.77;;;15.70;80.90;;;;;;4945314;29;20047;-82
2022/10/09 10:06:57;;;;;;;21.73;20.40;;;15.80;80.20;;;;;;4959774;28;20023;-84
2022/10/09 10:09:23;;;;;;;25.42;23.83;;;15.80;79.90;;;;;;4947353;28;20035;-83
2022/10/09 10:11:59;;;;;;;23.05;21.77;;;15.80;80.60;;;;;;4951099;28;20027;-81
2022/10/09 10:14:26;;;;;;;23.88;22.38;;;15.90;79.20;;;;;;4952359;28;20032;-81
2022/10/09 10:16:53;;;;;;;24.67;22.88;;;15.90;79.80;;;;;;4968356;28;20039;-80
2022/10/09 10:19:20;;;;;;;24.08;22.27;;;16.00;79.90;;;;;;4933166;29;20035;-82
2022/10/09 10:21:47;;;;;;;24.00;22.40;;;16.10;79.20;;;;;;4946286;28;20381;-82
2022/10/09 10:24:21;;;;;;;24.45;23.00;;;16.00;79.20;;;;;;4964709;28;20040;-81
2022/10/09 10:26:54;;;;;;;23.65;22.23;;;16.10;79.10;;;;;;4954767;29;20475;-86
2022/10/09 10:29:40;;;;;;;24.40;22.95;;;16.10;78.80;;;;;;4935502;29;20035;-85
2022/10/09 10:32:22;;;;;;;27.42;25.83;;;16.10;79.50;;;;;;4930678;28;20039;-83
2022/10/09 10:34:52;;;;;;;26.65;24.90;;;16.30;79.60;;;;;;4951767;28;20369;-84
2022/10/09 10:37:18;;;;;;;29.13;27.20;;;16.40;79.10;;;;;;4969236;28;20535;-84
2022/10/09 10:39:49;;;;;;;28.98;27.27;;;16.50;78.60;;;;;;4954312;28;20461;-82
2022/10/09 10:42:56;;;;;;;28.55;26.65;;;16.50;78.20;;;;;;4950704;28;20487;-86
2022/10/09 10:45:33;;;;;;;30.75;29.05;;;16.50;78.20;;;;;;4954374;28;20042;-83
2022/10/09 10:47:59;;;;;;;30.15;28.10;;;16.50;77.90;;;;;;4943994;28;20043;-84
2022/10/09 10:50:28;;;;;;;32.60;30.70;;;16.60;78.40;;;;;;4948989;28;20046;-86
2022/10/09 10:53:21;;;;;;;29.88;28.08;;;16.70;77.60;;;;;;4962548;28;20063;-85
2022/10/09 10:55:55;;;;;;;32.78;30.58;;;16.60;77.90;;;;;;4953250;28;20035;-88
2022/10/09 10:58:31;;;;;;;27.65;25.80;;;16.70;78.00;;;;;;4955013;28;20027;-88
2022/10/09 11:01:12;;;;;;;28.80;27.05;;;16.70;78.30;;;;;;4953417;28;20031;-90
2022/10/09 11:03:47;;;;;;;33.08;31.10;;;16.80;78.10;;;;;;4930680;28;20035;-88
2022/10/09 11:06:28;;;;;;;28.40;26.70;;;16.80;77.70;;;;;;4967508;28;20067;-91
2022/10/09 11:08:57;;;;;;;;;;;16.80;78.20;;;;;;5377711;23;20034;-89
2022/10/09 11:11:49;;;;;;;32.08;30.17;;;16.90;77.70;;;;;;5002952;28;19925;-90
2022/10/09 11:14:24;;;;;;;29.63;27.85;;;17.00;78.80;;;;;;4976774;28;20038;-85
2022/10/09 11:17:27;;;;;;;31.40;29.60;;;17.10;78.50;;;;;;4979319;28;20035;-88
2022/10/09 11:20:12;;;;;;;33.97;31.95;;;17.20;77.20;;;;;;5133183;23;20029;-93
2022/10/09 11:23:23;;;;;;;33.30;31.27;;;17.30;76.50;;;;;;4999972;28;20050;-88
2022/10/09 11:26:03;;;;;;;35.30;33.33;;;17.40;77.20;;;;;;4974084;28;20042;-83
2022/10/09 11:28:34;;;;;;;36.20;34.20;;;17.40;76.30;;;;;;4974467;28;20045;-83
2022/10/09 11:31:05;;;;;;;;;;;17.50;76.60;;;;;;4966423;28;20035;-82
2022/10/09 11:33:49;;;;;;;34.05;31.85;;;17.50;76.70;;;;;;4965656;28;19926;-83
2022/10/09 11:36:16;;;;;;;37.63;35.42;;;17.70;76.50;;;;;;4954670;28;20030;-82
2022/10/09 11:38:47;;;;;;;40.45;38.25;;;17.70;75.90;;;;;;4955362;28;20034;-83
2022/10/09 11:41:14;;;;;;;44.03;41.38;;;17.80;75.90;;;;;;4972681;28;20034;-82
2022/10/09 11:44:01;;;;;;;47.47;44.80;;;17.90;75.80;;;;;;4945981;28;20515;-82
2022/10/09 11:46:30;;;;;;;50.55;47.70;;;18.00;75.80;;;;;;4964325;28;20043;-82
2022/10/09 11:49:12;;;;;;;54.78;51.65;;;18.10;75.30;;;;;;4985481;28;20058;-82
2022/10/09 11:51:50;;;;;;;55.63;52.67;;;18.20;74.90;;;;;;4972225;28;20038;-82
2022/10/09 11:54:18;;;;;;;53.88;50.97;;;18.30;74.50;;;;;;4990407;28;20035;-82
2022/10/09 11:57:00;;;;;;;63.03;59.35;;;18.30;75.10;;;;;;4968455;28;20050;-82
2022/10/09 11:59:35;;;;;;;54.63;51.38;;;18.50;74.10;;;;;;4993749;28;20042;-87
2022/10/09 12:02:25;;;;;;;51.03;48.03;;;18.50;73.90;;;;;;4975166;28;20049;-88
2022/10/09 12:04:52;;;;;;;50.63;47.83;;;18.60;74.20;;;;;;4976812;28;20337;-86
2022/10/09 12:07:47;;;;;;;46.33;43.92;;;18.70;74.30;;;;;;5006353;28;20034;-83
2022/10/09 12:10:31;;;;;;;70.38;66.70;;;18.70;73.70;;;;;;4983717;28;20483;-81
2022/10/09 12:13:02;;;;;;;68.47;64.68;;;18.70;73.50;;;;;;4984642;28;20055;-80
2022/10/09 12:15:57;;;;;;;53.55;50.63;;;18.70;73.50;;;;;;4998989;28;20037;-81
2022/10/09 12:18:30;;;;;;;68.60;64.80;;;18.70;73.70;;;;;;5008022;28;20045;-82
2022/10/09 12:20:58;;;;;;;80.80;76.70;;;18.80;74.80;;;;;;5008552;28;20042;-82
2022/10/09 12:23:27;;;;;;;49.55;46.55;;;19.10;73.60;;;;;;4990623;28;20498;-82
2022/10/09 12:25:54;;;;;;;43.33;40.85;;;19.30;73.20;;;;;;4994886;28;20045;-82
2022/10/09 12:28:36;;;;;;;44.28;41.58;;;19.40;71.70;;;;;;4993792;28;20033;-83
2022/10/09 12:31:04;;;;;;;41.35;38.70;;;19.50;72.10;;;;;;4999085;28;20030;-82
2022/10/09 12:33:39;;;;;;;34.00;31.90;;;19.60;71.10;;;;;;4996156;28;20030;-82
2022/10/09 12:36:20;;;;;;;36.85;34.53;;;19.50;70.40;;;;;;4994293;28;20030;-84
2022/10/09 12:38:46;;;;;;;43.72;40.53;;;19.40;70.60;;;;;;4978151;28;20506;-82
2022/10/09 12:41:20;;;;;;;33.20;31.00;;;19.40;70.90;;;;;;5015494;28;20034;-82